createdAt,value
2023-02-01T00:01:31.564Z,5.87
2023-02-01T00:05:33.104Z,5.87
2023-02-01T00:09:34.642Z,5.88
2023-02-01T00:13:40.917Z,5.88
2023-02-01T00:17:42.518Z,5.90
2023-02-01T00:21:45.407Z,5.87
2023-02-01T00:25:46.915Z,5.88
2023-02-01T00:29:48.457Z,5.87
2023-02-01T00:33:50.501Z,5.90
2023-02-01T00:37:52.040Z,5.92
2023-02-01T00:41:53.650Z,5.92
2023-02-01T00:45:56.077Z,5.95
2023-02-01T00:49:57.620Z,5.96
2023-02-01T00:53:59.300Z,5.98
2023-02-01T00:58:00.866Z,5.98
2023-02-01T01:02:02.439Z,5.99
2023-02-01T01:06:07.352Z,6.01
2023-02-01T01:10:11.166Z,6.03
2023-02-01T01:14:12.814Z,6.06
2023-02-01T01:18:15.018Z,6.08
2023-02-01T01:22:16.614Z,6.06
2023-02-01T01:26:21.308Z,6.08
2023-02-01T01:30:23.825Z,6.06
2023-02-01T01:34:25.621Z,6.06
2023-02-01T01:38:27.262Z,6.06
2023-02-01T01:42:28.831Z,6.08
2023-02-01T01:46:36.557Z,6.08
2023-02-01T01:50:55.544Z,6.11
2023-02-01T01:54:59.093Z,6.11
2023-02-01T01:59:01.182Z,6.14
2023-02-01T02:03:38.683Z,6.14
2023-02-01T02:07:42.631Z,6.14
2023-02-01T02:11:44.354Z,6.14
2023-02-01T02:16:17.548Z,6.16
2023-02-01T02:20:31.260Z,6.13
2023-02-01T02:24:48.222Z,6.16
2023-02-01T02:29:25.491Z,6.16
2023-02-01T02:33:47.372Z,6.14
2023-02-01T02:37:56.034Z,6.13
2023-02-01T02:42:31.775Z,6.14
2023-02-01T02:46:58.914Z,6.16
2023-02-01T02:51:31.349Z,6.16
2023-02-01T02:55:36.644Z,6.16
2023-02-01T02:59:59.687Z,6.14
2023-02-01T03:04:10.229Z,6.16
2023-02-01T03:08:17.293Z,6.19
2023-02-01T03:12:39.517Z,6.17
2023-02-01T03:16:57.195Z,6.24
2023-02-01T03:21:00.634Z,6.28
2023-02-01T03:25:08.185Z,6.30
2023-02-01T03:29:15.570Z,6.33
2023-02-01T03:33:25.301Z,6.35
2023-02-01T03:37:29.077Z,6.35
2023-02-01T03:41:52.353Z,6.35
2023-02-01T03:46:01.113Z,6.38
2023-02-01T03:50:07.568Z,6.39
2023-02-01T03:54:14.496Z,6.39
2023-02-01T03:58:18.717Z,6.40
2023-02-01T04:02:20.588Z,6.45
2023-02-01T04:06:22.529Z,6.43
2023-02-01T04:10:24.866Z,6.45
2023-02-01T04:14:26.523Z,6.46
2023-02-01T04:18:28.066Z,6.48
2023-02-01T04:22:30.516Z,6.46
2023-02-01T04:26:32.090Z,6.45
2023-02-01T04:30:33.915Z,6.42
2023-02-01T04:34:35.632Z,6.40
2023-02-01T04:38:37.135Z,6.42
2023-02-01T04:42:38.650Z,6.43
2023-02-01T04:46:40.199Z,6.43
2023-02-01T04:50:41.727Z,6.43
2023-02-01T04:54:43.294Z,6.43
2023-02-01T04:58:44.824Z,6.43
2023-02-01T05:02:46.324Z,6.48
2023-02-01T05:06:47.867Z,6.48
2023-02-01T05:10:49.759Z,6.50
2023-02-01T05:14:51.543Z,6.50
2023-02-01T05:18:54.188Z,6.51
2023-02-01T05:22:55.854Z,6.51
2023-02-01T05:26:57.464Z,6.50
2023-02-01T05:30:59.101Z,6.50
2023-02-01T05:35:01.134Z,6.48
2023-02-01T05:39:02.924Z,6.43
2023-02-01T05:43:04.715Z,6.42
2023-02-01T05:47:06.756Z,6.40
2023-02-01T05:51:08.647Z,6.38
2023-02-01T05:55:10.484Z,6.36
2023-02-01T05:59:12.117Z,6.33
2023-02-01T06:03:13.793Z,6.27
2023-02-01T06:07:15.355Z,6.28
2023-02-01T06:11:26.763Z,6.21
2023-02-01T06:15:33.656Z,6.21
2023-02-01T06:19:35.253Z,6.19
2023-02-01T06:23:36.790Z,6.14
2023-02-01T06:27:38.477Z,6.14
2023-02-01T06:31:40.783Z,6.17
2023-02-01T06:35:44.865Z,6.17
2023-02-01T06:39:46.481Z,6.19
2023-02-01T06:43:48.129Z,6.19
2023-02-01T06:47:49.707Z,6.19
2023-02-01T06:51:51.228Z,6.19
2023-02-01T06:55:57.758Z,6.21
2023-02-01T06:59:59.564Z,6.28
2023-02-01T07:04:01.177Z,6.35
2023-02-01T07:08:02.761Z,6.38
2023-02-01T07:12:04.451Z,6.35
2023-02-01T07:16:09.698Z,6.36
2023-02-01T07:20:11.620Z,6.38
2023-02-01T07:24:13.181Z,6.38
2023-02-01T07:28:14.912Z,6.39
2023-02-01T07:32:18.987Z,6.35
2023-02-01T07:36:20.780Z,6.32
2023-02-01T07:40:29.360Z,6.32
2023-02-01T07:44:30.862Z,6.32
2023-02-01T07:48:34.565Z,6.33
2023-02-01T07:52:36.063Z,6.36
2023-02-01T07:56:37.648Z,6.46
2023-02-01T08:00:57.654Z,6.53
2023-02-01T08:04:59.499Z,6.57
2023-02-01T08:09:01.101Z,6.53
2023-02-01T08:13:03.588Z,6.54
2023-02-01T08:17:05.137Z,6.63
2023-02-01T08:21:12.986Z,6.71
2023-02-01T08:25:14.564Z,6.83
2023-02-01T08:29:16.210Z,6.81
2023-02-01T08:33:17.809Z,6.83
2023-02-01T08:37:19.424Z,6.93
2023-02-01T08:41:24.224Z,6.91
2023-02-01T08:45:28.739Z,6.90
2023-02-01T08:49:30.393Z,6.91
2023-02-01T08:53:32.320Z,6.94
2023-02-01T08:57:34.614Z,6.94
2023-02-01T09:01:36.170Z,6.99
2023-02-01T09:05:49.052Z,7.04
2023-02-01T09:09:51.662Z,7.11
2023-02-01T09:13:53.685Z,7.21
2023-02-01T09:17:55.256Z,7.26
2023-02-01T09:21:56.802Z,7.33
2023-02-01T09:26:02.617Z,7.37
2023-02-01T09:30:05.619Z,7.51
2023-02-01T09:34:08.025Z,7.58
2023-02-01T09:38:09.598Z,7.62
2023-02-01T09:42:22.966Z,7.74
2023-02-01T09:46:30.011Z,7.79
2023-02-01T09:50:38.317Z,7.82
2023-02-01T09:54:39.899Z,7.79
2023-02-01T09:59:23.167Z,7.81
2023-02-01T10:03:29.091Z,7.74
2023-02-01T10:07:42.928Z,7.71
2023-02-01T10:12:13.665Z,7.70
2023-02-01T10:16:36.105Z,7.69
2023-02-01T10:21:11.650Z,7.63
2023-02-01T10:25:27.306Z,7.66
2023-02-01T10:29:37.440Z,7.63
2023-02-01T10:33:47.362Z,7.66
2023-02-01T10:37:49.107Z,7.66
2023-02-01T10:41:50.994Z,7.62
2023-02-01T10:45:52.710Z,7.63
2023-02-01T10:50:16.593Z,7.67
2023-02-01T10:54:21.644Z,7.74
2023-02-01T10:58:32.912Z,7.82
2023-02-01T11:02:36.676Z,7.85
2023-02-01T11:06:40.734Z,7.89
2023-02-01T11:10:43.409Z,7.92
2023-02-01T11:14:48.563Z,7.94
2023-02-01T11:18:56.015Z,7.99
2023-02-01T11:22:57.844Z,8.04
2023-02-01T11:27:04.670Z,8.02
2023-02-01T11:31:12.274Z,8.02
2023-02-01T11:35:20.617Z,8.04
2023-02-01T11:39:29.264Z,8.04
2023-02-01T11:43:30.788Z,8.04
2023-02-01T11:47:40.581Z,8.06
2023-02-01T11:51:55.781Z,8.09
2023-02-01T11:56:24.428Z,8.18
2023-02-01T12:00:28.931Z,8.21
2023-02-01T12:04:56.066Z,8.21
2023-02-01T12:09:04.056Z,8.21
2023-02-01T12:13:34.817Z,8.24
2023-02-01T12:17:56.287Z,8.21
2023-02-01T12:22:00.603Z,8.14
2023-02-01T12:26:40.226Z,8.17
2023-02-01T12:30:53.884Z,8.03
2023-02-01T12:35:34.338Z,8.00
2023-02-01T12:40:02.442Z,7.96
2023-02-01T12:44:33.343Z,7.96
2023-02-01T12:48:57.362Z,7.94
2023-02-01T12:53:09.933Z,7.99
2023-02-01T12:57:16.223Z,7.94
2023-02-01T13:01:34.680Z,8.00
2023-02-01T13:05:57.167Z,7.96
2023-02-01T13:10:05.984Z,7.94
2023-02-01T13:14:35.074Z,7.92
2023-02-01T13:18:39.160Z,7.95
2023-02-01T13:22:45.157Z,7.95
2023-02-01T13:26:47.191Z,8.03
2023-02-01T13:30:56.595Z,8.10
2023-02-01T13:35:19.917Z,8.14
2023-02-01T13:39:43.312Z,8.10
2023-02-01T13:43:51.098Z,8.03
2023-02-01T13:47:56.410Z,8.00
2023-02-01T13:51:59.764Z,7.96
2023-02-01T13:56:12.324Z,7.94
2023-02-01T14:00:37.337Z,7.86
2023-02-01T14:04:52.084Z,7.84
2023-02-01T14:09:08.852Z,7.79
2023-02-01T14:13:29.696Z,7.82
2023-02-01T14:17:34.907Z,7.81
2023-02-01T14:21:49.805Z,7.77
2023-02-01T14:26:04.495Z,7.84
2023-02-01T14:30:08.619Z,7.99
2023-02-01T14:34:45.972Z,8.00
2023-02-01T14:38:51.589Z,8.00
2023-02-01T14:42:54.378Z,8.02
2023-02-01T14:47:28.149Z,8.04
2023-02-01T14:51:31.406Z,8.10
2023-02-01T14:55:54.261Z,8.10
2023-02-01T15:00:07.916Z,8.12
2023-02-01T15:04:19.484Z,8.09
2023-02-01T15:08:29.384Z,8.04
2023-02-01T15:12:32.537Z,7.99
2023-02-01T15:16:34.157Z,8.00
2023-02-01T15:20:35.769Z,8.00
2023-02-01T15:24:39.646Z,8.03
2023-02-01T15:28:41.222Z,8.07
2023-02-01T15:32:42.753Z,8.09
2023-02-01T15:37:00.372Z,8.07
2023-02-01T15:41:14.439Z,8.06
2023-02-01T15:45:26.111Z,8.03
2023-02-01T15:49:27.811Z,7.96
2023-02-01T15:53:32.642Z,7.94
2023-02-01T15:57:36.991Z,7.86
2023-02-01T16:01:40.592Z,7.81
2023-02-01T16:05:45.696Z,7.77
2023-02-01T16:09:55.007Z,7.76
2023-02-01T16:13:56.636Z,7.71
2023-02-01T16:17:58.273Z,7.70
2023-02-01T16:21:59.836Z,7.70
2023-02-01T16:26:01.378Z,7.69
2023-02-01T16:30:03.570Z,7.66
2023-02-01T16:34:06.887Z,7.55
2023-02-01T16:38:22.120Z,7.52
2023-02-01T16:42:23.670Z,7.51
2023-02-01T16:46:30.864Z,7.51
2023-02-01T16:50:33.965Z,7.48
2023-02-01T16:54:35.517Z,7.45
2023-02-01T16:58:37.052Z,7.41
2023-02-01T17:02:40.651Z,7.44
2023-02-01T17:06:42.866Z,7.47
2023-02-01T17:10:44.407Z,7.47
2023-02-01T17:14:46.008Z,7.48
2023-02-01T17:18:54.690Z,7.45
2023-02-01T17:22:56.331Z,7.45
2023-02-01T17:26:58.380Z,7.47
2023-02-01T17:31:00.064Z,7.50
2023-02-01T17:35:01.687Z,7.47
2023-02-01T17:39:06.010Z,7.42
2023-02-01T17:43:13.567Z,7.42
2023-02-01T17:47:15.161Z,7.47
2023-02-01T17:51:19.243Z,7.51
2023-02-01T17:55:24.694Z,7.51
2023-02-01T17:59:27.436Z,7.55
2023-02-01T18:03:31.642Z,7.54
2023-02-01T18:07:33.239Z,7.50
2023-02-01T18:11:34.781Z,7.50
2023-02-01T18:15:36.462Z,7.45
2023-02-01T18:19:38.109Z,7.42
2023-02-01T18:23:39.697Z,7.34
2023-02-01T18:27:41.254Z,7.32
2023-02-01T18:31:49.400Z,7.32
2023-02-01T18:35:51.051Z,7.33
2023-02-01T18:39:52.586Z,7.32
2023-02-01T18:43:54.186Z,7.30
2023-02-01T18:47:55.952Z,7.32
2023-02-01T18:51:57.578Z,7.34
2023-02-01T18:55:59.579Z,7.42
2023-02-01T19:00:01.732Z,7.44
2023-02-01T19:04:11.970Z,7.47
2023-02-01T19:08:20.726Z,7.47
2023-02-01T19:12:22.292Z,7.47
2023-02-01T19:16:23.857Z,7.47
2023-02-01T19:20:27.239Z,7.51
2023-02-01T19:24:29.657Z,7.51
2023-02-01T19:28:31.208Z,7.55
2023-02-01T19:32:32.853Z,7.58
2023-02-01T19:36:34.418Z,7.62
2023-02-01T19:40:36.068Z,7.63
2023-02-01T19:44:37.666Z,7.66
2023-02-01T19:48:39.197Z,7.66
2023-02-01T19:52:40.740Z,7.63
2023-02-01T19:56:44.422Z,7.62
2023-02-01T20:00:45.086Z,7.55
2023-02-01T20:04:46.608Z,7.51
2023-02-01T20:08:48.470Z,7.50
2023-02-01T20:12:50.119Z,7.44
2023-02-01T20:16:51.850Z,7.37
2023-02-01T20:20:57.634Z,7.42
2023-02-01T20:25:01.079Z,7.45
2023-02-01T20:29:03.911Z,7.44
2023-02-01T20:33:05.726Z,7.44
2023-02-01T20:37:07.330Z,7.47
2023-02-01T20:41:09.401Z,7.52
2023-02-01T20:45:11.080Z,7.55
2023-02-01T20:49:12.913Z,7.54
2023-02-01T20:53:25.293Z,7.62
2023-02-01T20:57:28.023Z,7.62
2023-02-01T21:01:30.746Z,7.62
2023-02-01T21:05:39.952Z,7.67
2023-02-01T21:09:43.225Z,7.70
2023-02-01T21:13:50.481Z,7.71
2023-02-01T21:17:52.285Z,7.77
2023-02-01T21:21:54.103Z,7.84
2023-02-01T21:26:01.255Z,7.85
2023-02-01T21:30:06.388Z,7.86
2023-02-01T21:34:08.683Z,7.88
2023-02-01T21:38:10.379Z,7.86
2023-02-01T21:42:14.493Z,7.85
2023-02-01T21:46:18.042Z,7.86
2023-02-01T21:50:20.500Z,7.88
2023-02-01T21:54:22.372Z,7.85
2023-02-01T21:58:23.892Z,7.86
2023-02-01T22:02:25.907Z,7.82
2023-02-01T22:06:33.165Z,7.84
2023-02-01T22:10:34.715Z,7.84
2023-02-01T22:14:36.345Z,7.86
2023-02-01T22:18:37.857Z,7.88
2023-02-01T22:22:39.420Z,7.89
2023-02-01T22:26:41.713Z,7.86
2023-02-01T22:30:43.404Z,7.85
2023-02-01T22:34:45.119Z,7.81
2023-02-01T22:38:48.353Z,7.79
2023-02-01T22:42:51.154Z,7.79
2023-02-01T22:46:52.724Z,7.77
2023-02-01T22:51:01.373Z,7.76
2023-02-01T22:55:02.999Z,7.76
2023-02-01T22:59:07.444Z,7.76
2023-02-01T23:03:09.132Z,7.73
2023-02-01T23:07:10.636Z,7.73
2023-02-01T23:11:12.746Z,7.74
2023-02-01T23:15:16.136Z,7.76
2023-02-01T23:19:18.445Z,7.77
2023-02-01T23:23:20.032Z,7.79
2023-02-01T23:27:21.837Z,7.77
2023-02-01T23:31:25.212Z,7.79
2023-02-01T23:35:27.069Z,7.77
2023-02-01T23:39:28.902Z,7.79
2023-02-01T23:43:50.128Z,7.76
2023-02-01T23:47:51.654Z,7.76
2023-02-01T23:51:53.782Z,7.74
2023-02-01T23:55:55.714Z,7.74
2023-02-01T23:59:57.342Z,7.71
